Time;durP1;ratioP1;P1;durP2;ratioP2;P2;SDS_P1;SDS_P2;PMS_P1;PMS_P2;Temp;Humidity;BMP_temperature;BMP_pressure;BME280_temperature;BME280_humidity;BME280_pressure;Samples;Min_cycle;Max_cycle;Signal;HPM_P1;HPM_P2
2021/06/20 00:00:33;;;;;;;3.12;0.88;;;;;;;19.86;98.50;100815.48;1749369;82;21406;-44
2021/06/20 00:03:00;;;;;;;1.45;0.93;;;;;;;19.86;98.50;100815.48;1749466;82;21061;-43
2021/06/20 00:05:34;;;;;;;0.57;0.57;;;;;;;19.79;98.79;100815.18;1749569;80;21049;-42
2021/06/20 00:08:02;;;;;;;0.60;0.60;;;;;;;19.79;98.79;100815.18;1749066;82;20989;-43
2021/06/20 00:10:31;;;;;;;1.12;0.80;;;;;;;19.78;98.71;100809.38;1761802;81;20990;-43
2021/06/20 00:12:59;;;;;;;2.70;0.85;;;;;;;19.70;98.72;100817.39;1768368;81;21034;-44
2021/06/20 00:15:27;;;;;;;2.55;1.15;;;;;;;19.68;98.53;100814.16;1743724;82;20982;-43
2021/06/20 00:17:54;;;;;;;1.47;0.85;;;;;;;19.61;98.58;100804.13;1744241;82;21014;-45
2021/06/20 00:20:23;;;;;;;1.42;0.68;;;;;;;19.61;98.58;100804.13;1744359;82;20999;-43
2021/06/20 00:22:50;;;;;;;0.95;0.90;;;;;;;19.57;98.70;100803.73;1744417;82;21009;-43
2021/06/20 00:25:17;;;;;;;0.72;0.70;;;;;;;19.54;98.57;100803.83;1744194;82;21515;-43
2021/06/20 00:27:44;;;;;;;0.53;0.53;;;;;;;19.53;98.51;100793.87;1744193;82;20994;-44
2021/06/20 00:30:14;;;;;;;0.57;0.57;;;;;;;19.51;98.71;100787.84;1744135;82;20975;-45
2021/06/20 00:32:42;;;;;;;0.40;0.40;;;;;;;19.51;98.47;100767.05;1744218;82;21001;-45
2021/06/20 00:35:10;;;;;;;1.15;0.90;;;;;;;19.51;98.47;100767.05;1744111;82;20995;-44
2021/06/20 00:37:36;;;;;;;1.57;1.02;;;;;;;19.52;98.43;100761.19;1744278;82;21357;-43
2021/06/20 00:40:05;;;;;;;0.75;0.70;;;;;;;19.53;98.17;100763.38;1744167;82;20991;-44
2021/06/20 00:42:32;;;;;;;0.95;0.93;;;;;;;19.53;97.81;100766.16;1744220;82;20979;-43
2021/06/20 00:44:58;;;;;;;1.12;0.80;;;;;;;19.52;97.79;100778.40;1722919;82;21010;-43
2021/06/20 00:47:25;;;;;;;1.72;1.00;;;;;;;19.52;97.79;100778.40;1755746;80;20994;-44
2021/06/20 00:49:51;;;;;;;2.27;0.70;;;;;;;19.51;97.86;100783.13;1735048;82;20971;-42
2021/06/20 00:52:18;;;;;;;4.25;1.15;;;;;;;19.50;97.78;100780.68;1738842;82;21057;-43
2021/06/20 00:54:48;;;;;;;2.47;0.90;;;;;;;19.49;97.64;100784.03;1737673;82;21547;-44
2021/06/20 00:57:19;;;;;;;0.95;0.62;;;;;;;19.47;97.62;100778.58;1729779;82;20989;-43
2021/06/20 00:59:46;;;;;;;0.60;0.60;;;;;;;19.43;97.34;100769.29;1726068;81;21471;-43
2021/06/20 01:02:12;;;;;;;0.90;0.72;;;;;;;19.45;96.73;100772.55;1754868;81;21041;-43
2021/06/20 01:04:40;;;;;;;1.05;0.85;;;;;;;19.45;96.33;100762.85;1754845;81;21001;-45
2021/06/20 01:07:06;;;;;;;1.10;0.98;;;;;;;19.43;95.75;100756.82;1744673;81;20994;-43
2021/06/20 01:09:33;;;;;;;1.90;0.80;;;;;;;19.43;95.75;100756.82;1754454;81;21406;-42
2021/06/20 01:11:59;;;;;;;0.53;0.53;;;;;;;19.43;95.83;100748.51;1755070;81;20994;-48
2021/06/20 01:14:27;;;;;;;0.53;0.50;;;;;;;19.41;95.77;100757.17;1753632;81;21040;-48
2021/06/20 01:16:54;;;;;;;2.50;1.00;;;;;;;19.41;95.37;100754.95;1754857;81;21014;-48
2021/06/20 01:19:21;;;;;;;0.40;0.40;;;;;;;19.41;95.37;100754.95;1754811;81;21001;-49
2021/06/20 01:21:49;;;;;;;0.62;0.60;;;;;;;19.38;95.34;100759.20;1755082;81;21399;-48
2021/06/20 01:24:15;;;;;;;1.25;0.70;;;;;;;19.39;95.30;100753.11;1754725;81;21007;-48
2021/06/20 01:26:42;;;;;;;0.93;0.50;;;;;;;19.40;94.96;100749.98;1724973;81;20998;-48
2021/06/20 01:29:09;;;;;;;0.82;0.80;;;;;;;19.40;94.68;100739.48;1754908;81;21026;-48
2021/06/20 01:31:36;;;;;;;0.68;0.68;;;;;;;19.43;94.48;100757.62;1754791;81;21025;-48
2021/06/20 01:34:05;;;;;;;1.25;0.50;;;;;;;19.43;94.48;100757.62;1754943;81;21491;-48
2021/06/20 01:36:32;;;;;;;0.82;0.50;;;;;;;19.44;94.59;100777.86;1755080;81;21061;-43
2021/06/20 01:38:59;;;;;;;0.57;0.45;;;;;;;19.43;94.56;100749.89;1755062;81;21447;-48
2021/06/20 01:41:25;;;;;;;1.10;0.60;;;;;;;19.43;94.26;100737.42;1754912;81;21013;-48
2021/06/20 01:43:52;;;;;;;2.37;0.70;;;;;;;19.41;94.36;100732.23;1701837;81;21009;-44
2021/06/20 01:46:18;;;;;;;2.85;0.70;;;;;;;19.41;94.00;100724.47;1754716;81;21013;-43
2021/06/20 01:48:45;;;;;;;2.25;1.00;;;;;;;19.45;93.94;100728.21;1728606;81;20970;-44
2021/06/20 01:51:12;;;;;;;0.60;0.60;;;;;;;19.45;93.72;100730.41;1718287;83;21030;-43
2021/06/20 01:53:38;;;;;;;1.07;0.70;;;;;;;19.44;93.20;100721.86;1731285;82;21003;-44
2021/06/20 01:56:05;;;;;;;0.35;0.35;;;;;;;19.45;92.37;100722.67;1705726;84;21437;-44
2021/06/20 01:58:33;;;;;;;2.30;1.00;;;;;;;19.49;92.01;100723.06;1718332;83;21025;-42
2021/06/20 02:01:01;;;;;;;0.70;0.70;;;;;;;19.48;91.50;100712.30;1732163;82;20984;-45
2021/06/20 02:03:28;;;;;;;0.57;0.57;;;;;;;19.46;90.84;100710.42;1705510;84;20979;-43
2021/06/20 02:05:59;;;;;;;2.15;0.70;;;;;;;19.46;90.46;100713.20;1718622;82;21466;-42
2021/06/20 02:08:27;;;;;;;1.30;0.82;;;;;;;19.46;90.46;100713.20;1731368;82;21497;-45
2021/06/20 02:10:55;;;;;;;0.98;0.68;;;;;;;19.44;89.69;100712.74;1705576;84;21010;-44
2021/06/20 02:13:27;;;;;;;2.00;0.68;;;;;;;19.44;89.61;100715.52;1718435;83;21005;-44
2021/06/20 02:15:55;;;;;;;0.60;0.60;;;;;;;19.43;89.37;100714.67;1730742;82;21007;-43
2021/06/20 02:18:21;;;;;;;0.40;0.40;;;;;;;19.42;89.26;100707.52;1705488;84;21002;-43
2021/06/20 02:20:48;;;;;;;0.65;0.47;;;;;;;19.42;89.11;100709.48;1705616;83;20990;-45
2021/06/20 02:23:15;;;;;;;1.17;0.70;;;;;;;19.42;88.69;100716.41;1718384;82;21002;-44
2021/06/20 02:25:41;;;;;;;3.30;0.55;;;;;;;19.43;88.96;100714.67;1700120;82;21011;-43
2021/06/20 02:28:08;;;;;;;0.80;0.65;;;;;;;19.44;88.10;100715.52;1705624;84;21066;-43
2021/06/20 02:30:35;;;;;;;0.40;0.30;;;;;;;19.48;87.54;100713.69;1719178;82;21507;-44
2021/06/20 02:33:02;;;;;;;1.65;0.57;;;;;;;19.52;86.95;100717.42;1731226;82;21023;-44
2021/06/20 02:35:28;;;;;;;1.10;0.72;;;;;;;19.51;86.89;100714.39;1705909;84;21021;-43
2021/06/20 02:37:55;;;;;;;0.33;0.33;;;;;;;19.51;86.89;100714.39;1718200;82;21037;-43
2021/06/20 02:40:21;;;;;;;1.05;0.40;;;;;;;19.55;86.63;100714.78;1731259;82;21042;-42
2021/06/20 02:42:48;;;;;;;1.25;0.50;;;;;;;19.60;86.79;100719.33;1718186;83;21002;-43
2021/06/20 02:45:21;;;;;;;1.17;0.70;;;;;;;19.64;87.23;100720.30;1719036;82;21005;-43
2021/06/20 02:47:47;;;;;;;0.50;0.40;;;;;;;19.66;87.28;100719.39;1732613;82;21047;-45
2021/06/20 02:50:15;;;;;;;0.72;0.57;;;;;;;19.69;87.09;100712.41;1746771;80;20989;-42
2021/06/20 02:52:43;;;;;;;0.47;0.47;;;;;;;19.76;86.10;100706.56;1744547;81;20971;-43
2021/06/20 02:55:10;;;;;;;1.07;0.62;;;;;;;19.76;86.10;100692.70;1752997;81;21450;-44
2021/06/20 02:57:37;;;;;;;0.68;0.47;;;;;;;19.79;85.61;100695.95;1757651;80;21263;-43
2021/06/20 03:00:05;;;;;;;1.42;0.62;;;;;;;19.83;85.63;100692.18;1749503;82;21057;-44
2021/06/20 03:02:32;;;;;;;0.80;0.70;;;;;;;19.88;85.67;100699.47;1749584;82;20966;-42
2021/06/20 03:04:58;;;;;;;1.50;0.50;;;;;;;19.89;85.24;100699.14;1749266;82;21028;-43
2021/06/20 03:07:25;;;;;;;0.78;0.50;;;;;;;19.92;85.56;100697.66;1740946;82;21476;-43
2021/06/20 03:09:51;;;;;;;0.78;0.68;;;;;;;19.92;85.56;100697.66;1719758;82;21017;-43
2021/06/20 03:12:18;;;;;;;0.40;0.40;;;;;;;19.95;85.61;100696.97;1768139;81;21083;-43
2021/06/20 03:14:45;;;;;;;0.50;0.50;;;;;;;19.99;85.31;100702.09;1766410;80;21101;-44
2021/06/20 03:17:14;;;;;;;0.82;0.60;;;;;;;20.02;84.96;100704.19;1741033;82;21005;-45
2021/06/20 03:19:40;;;;;;;0.85;0.42;;;;;;;20.05;84.72;100699.34;1741173;82;20998;-43
2021/06/20 03:22:08;;;;;;;0.82;0.62;;;;;;;20.06;84.86;100692.67;1740406;82;21038;-44
2021/06/20 03:24:36;;;;;;;0.98;0.40;;;;;;;20.09;85.08;100700.30;1739261;82;20986;-43
2021/06/20 03:27:03;;;;;;;0.47;0.33;;;;;;;20.13;85.44;100714.33;1709371;83;21006;-43
2021/06/20 03:29:30;;;;;;;0.53;0.53;;;;;;;20.13;84.77;100708.20;1709479;82;21017;-43
2021/06/20 03:31:56;;;;;;;0.55;0.35;;;;;;;20.16;85.12;100720.00;1709320;83;21419;-44
2021/06/20 03:34:23;;;;;;;0.40;0.37;;;;;;;20.15;84.96;100711.45;1722313;82;21021;-43
2021/06/20 03:36:50;;;;;;;0.75;0.40;;;;;;;20.17;85.15;100710.52;1748650;81;21052;-43
2021/06/20 03:39:16;;;;;;;0.45;0.45;;;;;;;20.19;84.86;100706.83;1768598;80;21495;-43
2021/06/20 03:41:43;;;;;;;0.75;0.28;;;;;;;20.23;85.12;100708.92;1744063;82;20986;-44
2021/06/20 03:44:10;;;;;;;3.00;0.30;;;;;;;20.28;84.65;100710.14;1743976;82;21026;-45
2021/06/20 03:46:37;;;;;;;0.90;0.50;;;;;;;20.31;83.58;100708.87;1743912;82;21037;-44
2021/06/20 03:49:03;;;;;;;0.40;0.30;;;;;;;20.38;83.08;100701.39;1743835;82;21077;-43
2021/06/20 03:51:30;;;;;;;0.53;0.53;;;;;;;20.47;83.17;100704.08;1743830;82;21005;-44
2021/06/20 03:53:57;;;;;;;2.47;0.50;;;;;;;20.56;82.52;100707.05;1738064;82;21048;-43
2021/06/20 03:56:24;;;;;;;4.17;0.95;;;;;;;20.66;81.31;100709.17;1768454;81;21472;-44
2021/06/20 03:58:50;;;;;;;0.53;0.50;;;;;;;20.74;80.41;100696.58;1771380;81;21003;-46
2021/06/20 04:01:17;;;;;;;0.30;0.30;;;;;;;20.83;79.99;100693.14;1749641;82;20997;-43
2021/06/20 04:03:43;;;;;;;0.33;0.28;;;;;;;20.92;78.99;100693.06;1749377;82;21466;-44
2021/06/20 04:06:10;;;;;;;0.37;0.37;;;;;;;20.99;79.02;100689.15;1749396;82;21044;-44
2021/06/20 04:08:36;;;;;;;0.40;0.40;;;;;;;21.05;78.31;100689.14;1749448;82;21033;-43
2021/06/20 04:11:03;;;;;;;0.37;0.37;;;;;;;21.10;76.30;100692.28;1749367;82;21419;-44
2021/06/20 04:13:29;;;;;;;0.35;0.35;;;;;;;21.15;77.45;100694.03;1749503;82;20997;-43
2021/06/20 04:15:56;;;;;;;0.35;0.35;;;;;;;21.17;76.98;100688.36;1748304;81;21104;-43
2021/06/20 04:18:23;;;;;;;0.78;0.78;;;;;;;21.21;76.45;100681.52;1768550;80;20986;-45
2021/06/20 04:20:49;;;;;;;0.40;0.40;;;;;;;21.25;76.34;100679.68;1744116;82;21009;-44
2021/06/20 04:23:16;;;;;;;4.03;0.68;;;;;;;21.25;75.56;100688.02;1768749;80;21462;-43
2021/06/20 04:25:43;;;;;;;0.25;0.20;;;;;;;21.23;76.17;100685.57;1766771;80;20971;-43
2021/06/20 04:28:09;;;;;;;0.30;0.30;;;;;;;21.23;76.15;100686.16;1756910;81;21022;-44
2021/06/20 04:30:35;;;;;;;0.75;0.53;;;;;;;21.23;75.50;100690.33;1738857;82;20985;-43
2021/06/20 04:33:03;;;;;;;0.30;0.30;;;;;;;21.23;75.67;100698.08;1738941;82;21033;-44
2021/06/20 04:35:30;;;;;;;0.40;0.30;;;;;;;21.28;75.99;100690.09;1738995;82;21041;-45
2021/06/20 04:37:56;;;;;;;0.42;0.42;;;;;;;21.40;76.31;100692.11;1738791;82;21050;-44
2021/06/20 04:40:24;;;;;;;0.40;0.40;;;;;;;21.52;74.54;100693.50;1738893;82;21139;-43
2021/06/20 04:43:05;;;;;;;0.50;0.40;;;;;;;21.62;74.36;100706.13;1739045;82;21069;-45
2021/06/20 04:45:25;;;;;;;0.50;0.50;;;;;;;21.74;73.79;100708.10;1737521;82;21456;-43
2021/06/20 04:47:51;;;;;;;0.80;0.35;;;;;;;21.89;74.17;100705.41;1738993;82;21013;-43
2021/06/20 04:50:17;;;;;;;0.75;0.33;;;;;;;22.03;73.69;100708.39;1732041;82;20991;-43
2021/06/20 04:52:46;;;;;;;0.25;0.10;;;;;;;22.17;71.93;100710.22;1734728;82;20994;-44
2021/06/20 04:55:14;;;;;;;0.40;0.40;;;;;;;22.31;71.46;100723.20;1731447;82;20991;-44
2021/06/20 04:57:40;;;;;;;1.85;0.40;;;;;;;22.43;72.50;100714.60;1749103;82;21025;-44
2021/06/20 05:00:08;;;;;;;1.05;0.40;;;;;;;22.51;72.40;100713.63;1732374;81;20995;-46
2021/06/20 05:02:35;;;;;;;0.20;0.20;;;;;;;22.59;71.82;100715.45;1731400;82;20986;-44
2021/06/20 05:05:04;;;;;;;1.37;0.93;;;;;;;22.64;71.14;100719.37;1739644;81;21002;-44
2021/06/20 05:07:31;;;;;;;0.37;0.37;;;;;;;22.62;70.17;100717.52;1738742;82;21437;-43
2021/06/20 05:09:57;;;;;;;0.23;0.23;;;;;;;22.57;68.75;100717.77;1738944;82;21050;-43
2021/06/20 05:12:24;;;;;;;0.37;0.37;;;;;;;22.54;68.57;100715.11;1738943;82;21010;-44
2021/06/20 05:14:50;;;;;;;0.70;0.30;;;;;;;22.52;69.44;100712.45;1738712;81;21050;-45
2021/06/20 05:17:18;;;;;;;0.55;0.28;;;;;;;22.55;69.70;100707.56;1738909;82;20997;-43
2021/06/20 05:19:46;;;;;;;0.55;0.40;;;;;;;22.68;70.57;100706.95;1717411;81;21583;-44
2021/06/20 05:22:12;;;;;;;4.85;0.82;;;;;;;22.92;69.72;100711.56;1739171;82;21018;-43
2021/06/20 05:24:40;;;;;;;1.17;0.57;;;;;;;23.14;68.66;100702.63;1731223;82;21504;-44
2021/06/20 05:27:07;;;;;;;0.30;0.30;;;;;;;23.32;66.08;100698.13;1731405;82;21018;-44
2021/06/20 05:29:34;;;;;;;1.75;0.40;;;;;;;23.42;65.86;100705.11;1737208;82;20990;-44
2021/06/20 05:32:00;;;;;;;3.58;1.27;;;;;;;23.49;65.43;100698.31;1731250;82;21480;-43
2021/06/20 05:34:27;;;;;;;0.35;0.35;;;;;;;23.59;62.98;100707.55;1737352;82;21002;-43
2021/06/20 05:36:53;;;;;;;0.40;0.40;;;;;;;23.67;65.23;100709.92;1731505;82;21049;-45
2021/06/20 05:39:20;;;;;;;1.52;0.95;;;;;;;23.77;66.24;100714.98;1737473;82;21014;-44
2021/06/20 05:41:46;;;;;;;1.10;0.45;;;;;;;23.88;66.05;100708.23;1712746;82;20987;-43
2021/06/20 05:44:12;;;;;;;0.35;0.35;;;;;;;23.97;65.95;100706.06;1737234;82;21037;-44
2021/06/20 05:46:41;;;;;;;1.47;0.70;;;;;;;24.04;65.24;100705.63;1737401;82;20998;-45
2021/06/20 05:49:08;;;;;;;0.45;0.45;;;;;;;24.08;63.37;100699.31;1739007;82;21406;-44
2021/06/20 05:51:35;;;;;;;0.55;0.40;;;;;;;24.11;63.28;100708.34;1726990;81;21428;-44
2021/06/20 05:54:01;;;;;;;1.62;0.80;;;;;;;24.15;63.91;100707.84;1742463;82;21062;-43
2021/06/20 05:56:29;;;;;;;1.05;0.37;;;;;;;24.20;63.14;100708.36;1746162;81;21566;-44
2021/06/20 05:58:55;;;;;;;0.35;0.30;;;;;;;24.25;63.15;100707.27;1746523;82;21460;-44
2021/06/20 06:01:23;;;;;;;0.40;0.30;;;;;;;24.29;62.07;100710.95;1753271;81;38836;-44
2021/06/20 06:03:49;;;;;;;0.62;0.30;;;;;;;24.32;61.99;100714.99;1737246;82;21045;-43
2021/06/20 06:06:15;;;;;;;1.67;0.40;;;;;;;24.36;61.14;100722.28;1733443;81;21504;-44
2021/06/20 06:08:44;;;;;;;0.20;0.20;;;;;;;24.42;61.73;100725.58;1748924;81;20953;-43
2021/06/20 06:11:10;;;;;;;0.30;0.25;;;;;;;24.50;62.36;100733.55;1749038;80;20986;-44
2021/06/20 06:13:37;;;;;;;0.78;0.40;;;;;;;24.56;59.23;100736.28;1743154;82;21036;-43
2021/06/20 06:16:04;;;;;;;1.47;0.35;;;;;;;24.55;59.59;100730.45;1731395;82;21393;-44
2021/06/20 06:18:31;;;;;;;0.70;0.35;;;;;;;24.59;61.70;100732.74;1731202;82;21517;-44
2021/06/20 06:20:57;;;;;;;2.33;0.68;;;;;;;24.66;60.32;100727.30;1726913;82;20969;-43
2021/06/20 06:23:24;;;;;;;0.98;0.65;;;;;;;24.71;61.74;100722.81;1726297;82;21024;-45
2021/06/20 06:25:50;;;;;;;0.30;0.30;;;;;;;24.77;60.39;100729.70;1726414;82;21001;-43
2021/06/20 06:28:17;;;;;;;1.37;0.33;;;;;;;24.82;61.12;100720.22;1726186;82;21048;-43
2021/06/20 06:30:43;;;;;;;0.20;0.20;;;;;;;24.88;60.05;100721.55;1734040;82;21404;-43
2021/06/20 06:33:09;;;;;;;0.62;0.35;;;;;;;24.81;59.00;100720.81;1733942;82;20976;-44
2021/06/20 06:35:36;;;;;;;0.50;0.40;;;;;;;24.67;59.37;100717.73;1718325;83;21016;-44
2021/06/20 06:38:03;;;;;;;0.35;0.30;;;;;;;24.54;60.60;100707.91;1702553;84;21049;-45
2021/06/20 06:40:30;;;;;;;0.35;0.20;;;;;;;24.46;61.83;100699.38;1718392;83;21088;-44
2021/06/20 06:42:57;;;;;;;2.27;0.28;;;;;;;24.54;61.25;100705.11;1702701;84;21025;-45
2021/06/20 06:45:25;;;;;;;2.62;0.70;;;;;;;24.62;60.87;100700.67;1718239;82;21010;-44
2021/06/20 06:47:51;;;;;;;2.02;0.70;;;;;;;24.75;59.93;100695.73;1702759;84;21488;-45
2021/06/20 06:50:19;;;;;;;0.37;0.30;;;;;;;24.89;60.80;100694.61;1744187;81;20957;-43
2021/06/20 06:52:47;;;;;;;0.70;0.50;;;;;;;25.01;58.58;100687.23;1746557;81;21042;-44
2021/06/20 06:55:14;;;;;;;0.65;0.40;;;;;;;25.07;58.53;100687.97;1746499;82;21046;-44
2021/06/20 06:57:41;;;;;;;1.85;0.53;;;;;;;25.15;59.37;100693.09;1746470;82;20989;-44
2021/06/20 07:00:09;;;;;;;1.00;0.45;;;;;;;25.26;58.36;100697.48;1727125;82;20993;-44
2021/06/20 07:02:35;;;;;;;1.45;1.05;;;;;;;25.36;59.15;100698.25;1754624;80;20997;-46
2021/06/20 07:05:01;;;;;;;1.65;0.42;;;;;;;25.48;58.68;100691.66;1754919;81;20969;-44
2021/06/20 07:07:28;;;;;;;0.28;0.28;;;;;;;25.62;57.20;100693.29;1754989;81;20873;-44
2021/06/20 07:09:59;;;;;;;0.20;0.20;;;;;;;25.71;57.12;100685.41;1719347;82;21006;-43
2021/06/20 07:12:30;;;;;;;0.40;0.40;;;;;;;25.77;57.13;100686.48;1746009;82;20982;-45
2021/06/20 07:14:57;;;;;;;1.37;1.10;;;;;;;25.83;57.54;100684.99;1709684;82;21840;-46
2021/06/20 07:17:24;;;;;;;4.47;0.57;;;;;;;25.94;58.94;100672.80;1709374;83;21457;-43
2021/06/20 07:19:51;;;;;;;0.75;0.53;;;;;;;26.08;56.37;100676.37;1709473;82;20994;-43
2021/06/20 07:22:18;;;;;;;0.30;0.30;;;;;;;26.10;55.11;100669.80;1740137;82;21041;-44
2021/06/20 07:24:45;;;;;;;0.53;0.47;;;;;;;26.06;57.43;100677.34;1749917;81;21852;-44
2021/06/20 07:27:12;;;;;;;0.10;0.10;;;;;;;25.98;55.76;100666.44;1749301;82;21065;-44
2021/06/20 07:29:40;;;;;;;0.50;0.50;;;;;;;25.88;56.44;100665.09;1749549;82;21062;-42
2021/06/20 07:32:07;;;;;;;0.20;0.20;;;;;;;25.93;56.78;100664.17;1715725;83;20998;-43
2021/06/20 07:34:34;;;;;;;0.80;0.42;;;;;;;26.01;55.85;100666.47;1749382;82;21005;-45
2021/06/20 07:37:00;;;;;;;0.60;0.60;;;;;;;26.12;56.86;100657.63;1749567;81;21625;-43
2021/06/20 07:39:27;;;;;;;0.55;0.37;;;;;;;26.27;56.10;100648.01;1749633;82;21017;-43
2021/06/20 07:41:53;;;;;;;1.55;0.30;;;;;;;26.35;56.51;100644.09;1716004;83;21500;-44
2021/06/20 07:44:20;;;;;;;0.50;0.37;;;;;;;26.42;57.69;100639.98;1749528;82;21001;-44
2021/06/20 07:46:47;;;;;;;1.12;0.40;;;;;;;26.57;56.52;100638.97;1716042;83;20975;-43
2021/06/20 07:49:13;;;;;;;0.42;0.30;;;;;;;26.74;56.19;100650.16;1715924;83;20998;-43
2021/06/20 07:51:40;;;;;;;2.52;0.30;;;;;;;26.88;54.66;100639.70;1749533;82;21009;-45
2021/06/20 07:54:06;;;;;;;0.30;0.30;;;;;;;26.89;53.66;100631.48;1716072;83;21051;-44
2021/06/20 07:56:34;;;;;;;0.45;0.37;;;;;;;26.90;53.41;100635.88;1749580;82;20974;-44
2021/06/20 07:59:00;;;;;;;0.17;0.17;;;;;;;26.92;53.30;100641.91;1749378;81;20989;-44
2021/06/20 08:01:28;;;;;;;0.20;0.20;;;;;;;27.00;52.42;100630.16;1749481;81;20994;-44
2021/06/20 08:03:54;;;;;;;0.45;0.40;;;;;;;27.10;52.68;100627.24;1715922;83;21007;-45
2021/06/20 08:06:21;;;;;;;0.62;0.20;;;;;;;27.19;54.46;100630.56;1749578;81;21054;-43
2021/06/20 08:08:54;;;;;;;0.75;0.20;;;;;;;27.28;51.53;100645.07;1749514;82;20990;-45
2021/06/20 08:11:16;;;;;;;0.47;0.42;;;;;;;27.29;52.60;100641.06;1748742;81;21430;-44
2021/06/20 08:13:43;;;;;;;0.20;0.20;;;;;;;27.25;51.54;100645.86;1746937;82;21485;-44
2021/06/20 08:16:09;;;;;;;0.55;0.30;;;;;;;27.20;51.08;100649.82;1732718;82;21042;-45
2021/06/20 08:18:36;;;;;;;1.75;0.65;;;;;;;27.22;51.00;100646.00;1738931;82;21432;-47
2021/06/20 08:21:03;;;;;;;0.35;0.35;;;;;;;27.32;52.23;100657.11;1718387;82;21453;-44
2021/06/20 08:23:29;;;;;;;0.47;0.47;;;;;;;27.48;52.15;100653.23;1716353;83;20986;-44
2021/06/20 08:25:56;;;;;;;2.90;0.55;;;;;;;27.65;52.85;100667.98;1716083;83;21033;-43
2021/06/20 08:28:22;;;;;;;0.28;0.28;;;;;;;27.80;49.72;100657.05;1739013;82;21144;-44
2021/06/20 08:30:49;;;;;;;0.10;0.10;;;;;;;27.84;50.14;100668.31;1739095;82;21377;-44
2021/06/20 08:33:16;;;;;;;0.30;0.30;;;;;;;27.85;49.30;100664.33;1738714;82;20908;-44
2021/06/20 08:35:42;;;;;;;0.40;0.40;;;;;;;27.84;49.00;100670.55;1715868;83;21501;-44
2021/06/20 08:38:09;;;;;;;2.65;0.88;;;;;;;27.88;50.46;100675.56;1739063;82;21030;-46
2021/06/20 08:40:35;;;;;;;0.98;0.45;;;;;;;28.00;50.26;100672.23;1738842;82;20990;-43
2021/06/20 08:43:02;;;;;;;1.42;0.75;;;;;;;28.09;49.23;100669.27;1739051;82;21020;-44
2021/06/20 08:45:28;;;;;;;1.30;0.40;;;;;;;28.13;50.63;100683.32;1738868;82;20966;-44
2021/06/20 08:47:55;;;;;;;0.55;0.55;;;;;;;28.20;52.43;100674.92;1766346;81;20989;-44
2021/06/20 08:50:21;;;;;;;1.22;0.80;;;;;;;28.27;50.60;100676.97;1725391;82;21022;-46
2021/06/20 08:52:52;;;;;;;0.37;0.28;;;;;;;28.30;51.07;100672.76;1746005;82;20994;-44
2021/06/20 08:55:18;;;;;;;0.28;0.20;;;;;;;28.40;50.47;100680.23;1738924;82;21013;-43
2021/06/20 08:57:47;;;;;;;1.10;0.35;;;;;;;28.40;49.63;100673.20;1739298;82;20998;-46
2021/06/20 09:00:15;;;;;;;0.40;0.40;;;;;;;28.38;50.68;100679.21;1756066;81;21432;-44
2021/06/20 09:02:42;;;;;;;0.35;0.25;;;;;;;28.35;50.18;100676.40;1768665;81;21403;-43
2021/06/20 09:05:10;;;;;;;0.60;0.37;;;;;;;28.28;49.79;100688.41;1768337;81;21038;-45
2021/06/20 09:07:41;;;;;;;0.30;0.23;;;;;;;28.11;49.24;100675.88;1742504;82;21479;-43
2021/06/20 09:10:12;;;;;;;0.80;0.50;;;;;;;27.95;49.85;100679.02;1746117;82;20996;-47
2021/06/20 09:12:57;;;;;;;1.22;0.50;;;;;;;27.90;50.64;100682.81;1734111;82;20990;-44
2021/06/20 09:15:29;;;;;;;0.30;0.30;;;;;;;27.92;51.44;100683.20;1739221;82;21472;-44
2021/06/20 09:17:59;;;;;;;1.35;0.40;;;;;;;27.99;51.82;100677.05;1746140;82;21068;-43
2021/06/20 09:20:43;;;;;;;0.65;0.47;;;;;;;28.09;51.95;100669.27;1746056;82;20998;-44
2021/06/20 09:23:15;;;;;;;0.40;0.37;;;;;;;28.15;51.31;100680.92;1732895;82;20938;-44
2021/06/20 09:25:48;;;;;;;0.65;0.65;;;;;;;28.14;51.62;100673.71;1738898;82;21018;-45
2021/06/20 09:28:15;;;;;;;0.93;0.62;;;;;;;28.13;51.01;100669.28;1738427;82;21010;-44
2021/06/20 09:30:47;;;;;;;0.30;0.20;;;;;;;28.09;50.80;100667.04;1738870;82;21472;-45
2021/06/20 09:33:13;;;;;;;0.47;0.40;;;;;;;27.98;51.66;100671.20;1739192;82;21065;-45
2021/06/20 09:35:48;;;;;;;0.23;0.20;;;;;;;27.88;51.83;100664.33;1746086;82;20998;-44
2021/06/20 09:38:34;;;;;;;1.47;0.35;;;;;;;27.87;50.16;100657.13;1732668;82;20991;-44
2021/06/20 09:41:12;;;;;;;1.00;0.60;;;;;;;27.95;51.40;100658.56;1732357;82;21034;-45
2021/06/20 09:43:53;;;;;;;3.85;1.52;;;;;;;28.08;52.11;100652.80;1732844;82;21048;-45
2021/06/20 09:46:20;;;;;;;3.10;0.30;;;;;;;28.20;51.11;100659.48;1718543;82;21455;-44
2021/06/20 09:48:47;;;;;;;0.30;0.30;;;;;;;28.23;50.83;100650.25;1747426;82;21289;-44
2021/06/20 09:51:25;;;;;;;1.42;0.33;;;;;;;28.19;51.73;100650.86;1751289;80;21059;-44
2021/06/20 09:53:53;;;;;;;0.23;0.15;;;;;;;28.05;49.56;100648.78;1747708;80;21032;-44
2021/06/20 09:56:28;;;;;;;1.42;0.50;;;;;;;27.87;50.60;100643.69;1737757;80;21034;-44
2021/06/20 09:59:02;;;;;;;0.65;0.40;;;;;;;27.93;51.37;100638.49;1749234;82;21471;-43
2021/06/20 10:01:35;;;;;;;0.30;0.30;;;;;;;28.11;51.94;100635.16;1736904;80;21005;-45
2021/06/20 10:04:02;;;;;;;0.40;0.33;;;;;;;28.32;51.64;100634.44;1725328;81;21025;-43
2021/06/20 10:06:28;;;;;;;0.60;0.30;;;;;;;28.40;51.60;100636.06;1723175;82;21102;-45
2021/06/20 10:08:56;;;;;;;0.65;0.65;;;;;;;28.46;52.14;100631.71;1732680;82;21071;-50
2021/06/20 10:11:23;;;;;;;5.62;0.72;;;;;;;28.56;52.60;100643.36;1765188;80;21026;-50
2021/06/20 10:13:49;;;;;;;1.35;0.33;;;;;;;28.61;51.53;100636.77;1757718;81;20905;-50
2021/06/20 10:16:33;;;;;;;1.05;0.80;;;;;;;28.61;50.88;100638.75;1757606;81;21002;-50
2021/06/20 10:19:11;;;;;;;1.12;0.85;;;;;;;28.59;51.35;100639.77;1714140;83;21021;-50
2021/06/20 10:21:42;;;;;;;0.53;0.30;;;;;;;28.54;49.35;100635.34;1731148;82;21006;-50
2021/06/20 10:24:19;;;;;;;1.40;0.47;;;;;;;28.48;51.31;100635.52;1733107;82;20996;-49
2021/06/20 10:26:59;;;;;;;0.37;0.35;;;;;;;28.48;50.60;100632.09;1725326;82;21047;-49
2021/06/20 10:29:32;;;;;;;0.20;0.20;;;;;;;28.41;50.47;100636.28;1729221;81;21026;-50
2021/06/20 10:31:59;;;;;;;0.40;0.30;;;;;;;28.21;49.03;100625.16;1724313;82;21517;-50
2021/06/20 10:34:32;;;;;;;0.50;0.50;;;;;;;27.91;50.01;100629.66;1736121;82;21007;-50
2021/06/20 10:37:01;;;;;;;0.50;0.30;;;;;;;27.75;52.01;100625.13;1743966;82;21388;-50
2021/06/20 10:39:28;;;;;;;3.40;0.50;;;;;;;27.69;52.78;100630.10;1714353;83;21076;-50
2021/06/20 10:42:10;;;;;;;0.57;0.40;;;;;;;27.74;52.86;100619.30;1748804;81;21544;-50
2021/06/20 10:44:52;;;;;;;0.50;0.50;;;;;;;27.88;53.01;100622.22;1745455;80;20986;-51
2021/06/20 10:47:34;;;;;;;0.75;0.47;;;;;;;28.02;52.45;100607.45;1749618;82;21451;-51
2021/06/20 10:50:13;;;;;;;1.42;0.88;;;;;;;28.16;50.48;100603.07;1720869;81;21028;-50
2021/06/20 10:52:40;;;;;;;0.40;0.28;;;;;;;28.20;50.96;100592.05;1765280;80;21010;-51
2021/06/20 10:55:14;;;;;;;0.28;0.28;;;;;;;28.17;51.02;100585.83;1733376;82;21417;-51
2021/06/20 10:57:47;;;;;;;0.45;0.35;;;;;;;28.18;51.93;100579.00;1732120;80;21404;-50
2021/06/20 11:00:32;;;;;;;0.20;0.20;;;;;;;28.23;51.99;100573.00;1736444;80;21026;-50
2021/06/20 11:03:13;;;;;;;0.30;0.30;;;;;;;28.28;50.98;100571.20;1680747;83;21400;-51
2021/06/20 11:05:53;;;;;;;0.30;0.30;;;;;;;28.34;50.30;100573.62;1693442;83;21022;-47
2021/06/20 11:08:36;;;;;;;0.40;0.40;;;;;;;28.42;52.26;100561.21;1734226;81;21702;-45
2021/06/20 11:11:19;;;;;;;0.30;0.30;;;;;;;28.60;52.69;100562.66;1744841;82;20998;-45
2021/06/20 11:14:00;;;;;;;0.47;0.42;;;;;;;28.79;52.50;100557.26;1748898;80;21008;-45
2021/06/20 11:16:34;;;;;;;0.93;0.47;;;;;;;28.81;48.71;100553.42;1764990;80;21452;-45
2021/06/20 11:19:21;;;;;;;0.57;0.53;;;;;;;28.64;50.33;100543.19;1746525;82;21005;-44
2021/06/20 11:22:04;;;;;;;0.40;0.40;;;;;;;28.46;48.56;100534.75;1746153;82;21491;-44
2021/06/20 11:24:36;;;;;;;0.28;0.23;;;;;;;28.26;48.82;100541.89;1690319;83;20989;-44
2021/06/20 11:27:17;;;;;;;0.30;0.30;;;;;;;28.20;49.53;100533.06;1714153;83;21001;-44
2021/06/20 11:29:55;;;;;;;0.53;0.40;;;;;;;28.33;50.44;100531.28;1714286;82;21148;-44